Time;durP1;ratioP1;P1;durP2;ratioP2;P2;SDS_P1;SDS_P2;PMS_P1;PMS_P2;Temp;Humidity;BMP_temperature;BMP_pressure;BME280_temperature;BME280_humidity;BME280_pressure;Samples;Min_cycle;Max_cycle;Signal;HPM_P1;HPM_P2
2023/07/28 00:01:48;;;;;;;6.57;2.80;;;10.20;99.90;;;;;;1889108;73;25312;-89
2023/07/28 00:04:48;;;;;;;3.63;2.13;;;10.10;99.90;;;;;;1878194;73;25929;-89
2023/07/28 00:07:37;;;;;;;3.07;2.30;;;10.20;99.90;;;;;;1867415;75;25227;-89
2023/07/28 00:10:26;;;;;;;6.27;2.50;;;10.20;99.90;;;;;;1896358;75;25251;-89
2023/07/28 00:13:18;;;;;;;6.43;2.63;;;10.00;99.90;;;;;;1894964;74;25285;-89
2023/07/28 00:16:11;;;;;;;5.83;2.53;;;9.90;99.90;;;;;;1894178;75;25194;-89
2023/07/28 00:19:00;;;;;;;3.90;2.60;;;9.90;99.90;;;;;;1895730;75;25733;-89
2023/07/28 00:21:49;;;;;;;4.80;2.20;;;10.00;99.90;;;;;;1888769;75;25708;-89
2023/07/28 00:24:37;;;;;;;3.20;2.40;;;10.00;99.90;;;;;;1892712;73;26538;-89
2023/07/28 00:27:28;;;;;;;2.67;2.30;;;10.00;99.90;;;;;;1899724;73;25299;-89
2023/07/28 00:30:17;;;;;;;6.93;2.87;;;10.00;99.90;;;;;;1905958;73;25226;-89
2023/07/28 00:33:06;;;;;;;3.13;2.17;;;9.90;99.90;;;;;;1884617;75;25223;-89
2023/07/28 00:38:48;;;;;;;6.97;2.20;;;9.90;99.90;;;;;;1945217;72;26506;-89
2023/07/28 00:41:36;;;;;;;4.40;2.13;;;9.90;99.90;;;;;;1912109;73;25283;-89
2023/07/28 00:44:25;;;;;;;4.13;2.00;;;9.80;99.90;;;;;;1906751;74;25687;-89
2023/07/28 00:47:16;;;;;;;10.77;2.60;;;9.70;99.90;;;;;;1891718;74;25282;-89
2023/07/28 00:50:06;;;;;;;2.83;2.37;;;9.70;99.90;;;;;;1869304;74;25243;-90
2023/07/28 00:52:56;;;;;;;4.53;2.40;;;9.70;99.90;;;;;;1855116;75;25232;-90
2023/07/28 00:55:49;;;;;;;2.17;1.90;;;9.60;99.90;;;;;;1862299;75;25296;-89
2023/07/28 00:58:38;;;;;;;3.23;1.90;;;9.60;99.90;;;;;;1856456;75;25984;-89
2023/07/28 01:01:27;;;;;;;3.43;1.80;;;9.60;99.90;;;;;;1844983;75;25250;-89
2023/07/28 01:04:17;;;;;;;3.20;1.97;;;9.50;99.90;;;;;;1811887;77;25207;-89
2023/07/28 01:07:10;;;;;;;7.70;2.37;;;9.50;99.90;;;;;;1823149;77;25239;-89
2023/07/28 01:24:39;;;;;;;3.53;2.13;;;9.40;99.90;;;;;;1963067;72;28855;-88
2023/07/28 01:27:28;;;;;;;3.03;2.20;;;9.40;99.90;;;;;;1949927;73;25181;-88
2023/07/28 01:32:58;;;;;;;2.03;1.80;;;9.30;99.90;;;;;;1941022;72;27491;-88
2023/07/28 01:35:47;;;;;;;1.80;1.70;;;9.30;99.90;;;;;;1886092;75;25680;-88
2023/07/28 01:38:35;;;;;;;6.63;2.57;;;9.30;99.90;;;;;;1864028;76;25340;-88
2023/07/28 01:41:26;;;;;;;7.07;2.50;;;9.30;99.90;;;;;;1825880;76;25817;-88
2023/07/28 01:44:15;;;;;;;5.10;2.00;;;9.30;99.90;;;;;;1844897;76;25357;-88
2023/07/28 01:47:05;;;;;;;5.13;2.20;;;9.20;99.90;;;;;;1841134;77;25280;-88
2023/07/28 01:49:54;;;;;;;3.17;2.20;;;9.10;99.90;;;;;;1862969;75;25695;-88
2023/07/28 01:52:43;;;;;;;6.43;2.20;;;9.00;99.90;;;;;;1884383;74;25280;-88
2023/07/28 01:55:32;;;;;;;2.13;1.93;;;9.00;99.90;;;;;;1896773;74;25723;-88
2023/07/28 01:58:21;;;;;;;1.90;1.80;;;9.00;99.90;;;;;;1879823;74;25691;-88
2023/07/28 02:01:09;;;;;;;2.47;2.03;;;9.10;99.90;;;;;;1829076;77;25319;-88
2023/07/28 02:03:58;;;;;;;6.53;2.17;;;9.10;99.90;;;;;;1847970;76;25275;-88
2023/07/28 02:06:47;;;;;;;6.67;2.40;;;8.90;99.90;;;;;;1807493;78;25255;-88
2023/07/28 02:12:23;;;;;;;2.80;2.07;;;8.80;99.90;;;;;;1939549;72;27025;-88
2023/07/28 02:17:57;;;;;;;3.50;2.30;;;9.00;99.90;;;;;;1943395;72;26906;-88
2023/07/28 02:20:48;;;;;;;2.47;1.97;;;8.90;99.90;;;;;;1929827;73;25228;-88
2023/07/28 02:23:37;;;;;;;2.50;2.30;;;9.00;99.90;;;;;;1949127;72;25242;-88
2023/07/28 02:26:25;;;;;;;2.33;1.97;;;8.80;99.90;;;;;;1927293;72;25824;-88
2023/07/28 02:29:14;;;;;;;7.07;1.90;;;8.70;99.90;;;;;;1922521;73;25550;-88
2023/07/28 02:32:02;;;;;;;5.00;2.30;;;8.50;99.90;;;;;;1918346;72;25687;-88
2023/07/28 02:34:51;;;;;;;4.73;2.17;;;8.60;99.90;;;;;;1922300;72;25163;-88
2023/07/28 02:37:42;;;;;;;2.23;2.03;;;8.60;99.90;;;;;;1930751;73;25256;-88
2023/07/28 02:40:33;;;;;;;3.03;2.17;;;8.70;99.90;;;;;;1941434;72;25321;-88
2023/07/28 02:43:22;;;;;;;2.63;2.43;;;8.70;99.90;;;;;;1898877;73;25246;-88
2023/07/28 02:46:10;;;;;;;2.90;2.10;;;8.70;99.90;;;;;;1886909;75;25684;-88
2023/07/28 03:04:31;;;;;;;5.67;2.70;;;8.60;99.90;;;;;;1986219;71;26637;-89
2023/07/28 03:07:20;;;;;;;3.73;2.20;;;8.60;99.90;;;;;;1916364;73;25773;-89
2023/07/28 03:10:16;;;;;;;5.17;2.00;;;8.60;99.90;;;;;;1940716;73;25166;-89
2023/07/28 03:13:01;;;;;;;6.40;2.00;;;8.50;99.90;;;;;;1931035;73;25709;-89
2023/07/28 03:15:50;;;;;;;5.20;2.23;;;8.60;99.90;;;;;;1927158;73;25190;-89
2023/07/28 03:21:17;;;;;;;2.40;1.93;;;8.80;99.90;;;;;;1925337;72;27001;-88
2023/07/28 03:24:07;;;;;;;1.90;1.77;;;8.80;99.90;;;;;;1889290;75;25261;-88
2023/07/28 03:26:57;;;;;;;2.90;2.10;;;9.00;99.90;;;;;;1862195;75;25342;-88
2023/07/28 03:29:45;;;;;;;5.80;2.00;;;9.10;99.90;;;;;;1941868;72;25694;-88
2023/07/28 03:32:35;;;;;;;5.73;2.27;;;9.40;99.90;;;;;;1904446;75;25232;-88
2023/07/28 03:35:24;;;;;;;2.43;1.80;;;9.60;99.90;;;;;;1836632;76;25736;-88
2023/07/28 03:38:12;;;;;;;3.43;1.70;;;10.00;99.90;;;;;;1940296;72;25665;-88
2023/07/28 03:41:01;;;;;;;1.40;1.30;;;10.20;99.90;;;;;;1901346;75;25324;-88
2023/07/28 03:43:49;;;;;;;2.57;1.37;;;10.50;99.90;;;;;;1836841;76;25320;-88
2023/07/28 03:46:38;;;;;;;1.77;1.30;;;10.70;99.90;;;;;;1914688;73;25275;-89
2023/07/28 03:49:26;;;;;;;2.27;1.40;;;11.00;99.90;;;;;;1901155;73;25178;-88
2023/07/28 03:52:15;;;;;;;2.87;1.10;;;11.30;99.90;;;;;;1908686;73;25281;-88
2023/07/28 03:55:03;;;;;;;1.20;1.20;;;11.60;99.90;;;;;;1879287;74;25219;-88
2023/07/28 03:57:52;;;;;;;2.17;1.37;;;11.90;99.90;;;;;;1902334;74;25268;-89
2023/07/28 04:22:00;;;;;;;1.47;1.30;;;13.60;99.90;;;;;;1939193;74;26662;-89
2023/07/28 04:28:32;;;;;;;1.30;1.20;;;14.20;99.90;;;;;;1963211;72;26988;-88
2023/07/28 04:34:03;;;;;;;1.33;1.10;;;14.90;99.90;;;;;;1975982;71;27021;-88
2023/07/28 04:36:52;;;;;;;0.90;0.90;;;15.30;99.90;;;;;;1937302;73;25204;-88
2023/07/28 04:43:05;;;;;;;1.07;1.07;;;15.70;99.90;;;;;;2070215;68;26224;-89
2023/07/28 05:13:28;;;;;;;1.03;0.97;;;16.20;99.90;;;;;;1911541;74;27099;-88
2023/07/28 05:19:11;;;;;;;3.80;0.90;;;16.40;99.90;;;;;;1983965;71;26684;-89
2023/07/28 05:25:13;;;;;;;2.53;0.90;;;16.40;99.90;;;;;;1974290;71;27060;-88
2023/07/28 05:28:04;;;;;;;2.40;0.80;;;16.70;99.90;;;;;;1978622;72;25378;-87
2023/07/28 05:33:45;;;;;;;0.90;0.90;;;17.50;99.90;;;;;;1955467;71;27392;-89
2023/07/28 05:40:37;;;;;;;0.90;0.87;;;17.50;99.90;;;;;;1992960;71;27026;-90
2023/07/28 05:46:36;;;;;;;1.10;1.10;;;17.90;99.90;;;;;;1945681;72;26841;-89
2023/07/28 05:52:10;;;;;;;1.90;1.00;;;18.00;99.90;;;;;;1938011;73;27400;-90
2023/07/28 05:58:15;;;;;;;3.60;1.00;;;18.10;99.90;;;;;;1989977;71;26885;-90
2023/07/28 06:01:04;;;;;;;0.90;0.90;;;18.10;99.90;;;;;;2031942;70;25236;-90
2023/07/28 06:06:35;;;;;;;1.27;1.10;;;18.30;99.90;;;;;;1960698;71;27099;-90
2023/07/28 06:09:24;;;;;;;1.77;1.30;;;18.20;99.90;;;;;;1925032;73;25174;-89
2023/07/28 06:12:13;;;;;;;1.30;0.90;;;18.00;99.90;;;;;;1952283;73;25698;-90
2023/07/28 06:15:02;;;;;;;0.80;0.80;;;18.10;99.90;;;;;;1956835;72;25163;-90
2023/07/28 06:17:51;;;;;;;0.93;0.93;;;17.90;99.90;;;;;;1952908;72;25731;-90
2023/07/28 06:20:43;;;;;;;1.33;1.00;;;17.90;99.90;;;;;;1951314;72;25263;-89
2023/07/28 06:23:32;;;;;;;3.70;1.30;;;17.90;99.90;;;;;;1959376;72;25679;-90
2023/07/28 06:26:20;;;;;;;1.13;1.10;;;17.90;99.90;;;;;;1943776;72;25214;-90
2023/07/28 06:29:10;;;;;;;1.20;1.10;;;18.00;99.90;;;;;;1941472;73;25612;-89
2023/07/28 06:31:58;;;;;;;0.90;0.90;;;18.10;99.90;;;;;;1934347;72;25727;-89
2023/07/28 06:34:47;;;;;;;0.97;0.80;;;17.90;99.90;;;;;;1938446;73;25616;-89
2023/07/28 06:37:36;;;;;;;2.00;1.00;;;17.50;99.90;;;;;;1954961;72;25255;-89
2023/07/28 06:40:24;;;;;;;1.13;1.03;;;17.60;99.90;;;;;;1932823;73;26498;-89
2023/07/28 06:56:41;;;;;;;3.17;0.90;;;17.90;99.90;;;;;;1934105;73;27008;-91
2023/07/28 07:32:34;;;;;;;2.53;0.90;;;18.10;99.90;;;;;;1974711;71;26426;-89
2023/07/28 07:35:23;;;;;;;1.10;0.93;;;18.60;99.90;;;;;;2008139;69;25663;-89
2023/07/28 07:38:12;;;;;;;7.20;6.07;;;18.20;99.90;;;;;;2035395;69;25126;-89
2023/07/28 07:41:01;;;;;;;17.43;11.47;;;18.70;99.90;;;;;;2005522;69;25260;-90
2023/07/28 07:43:53;;;;;;;4.53;3.23;;;18.60;99.90;;;;;;2057712;69;25710;-91
2023/07/28 07:46:41;;;;;;;3.27;2.50;;;18.70;99.90;;;;;;2051563;69;25808;-91
2023/07/28 07:49:31;;;;;;;3.70;2.90;;;18.30;99.90;;;;;;2046290;69;25215;-89
2023/07/28 07:55:15;;;;;;;10.13;7.37;;;18.60;99.90;;;;;;1982981;71;26962;-89
2023/07/28 08:04:17;;;;;;;14.10;10.87;;;18.30;99.90;;;;;;1977499;71;26433;-90
2023/07/28 08:07:06;;;;;;;25.47;19.43;;;19.60;99.90;;;;;;1991220;72;25707;-90
2023/07/28 08:09:55;;;;;;;29.63;20.33;;;19.40;99.90;;;;;;1987878;72;25207;-90
2023/07/28 08:12:44;;;;;;;24.83;16.73;;;18.90;99.90;;;;;;1976381;72;25202;-90
2023/07/28 08:15:33;;;;;;;20.43;15.90;;;18.40;99.90;;;;;;1970490;72;25164;-90
2023/07/28 08:18:22;;;;;;;2.53;2.33;;;18.50;99.90;;;;;;1984723;72;25300;-90
2023/07/28 08:21:12;;;;;;;1.20;1.20;;;18.30;99.90;;;;;;1971850;72;25254;-90
2023/07/28 08:24:00;;;;;;;1.13;1.13;;;18.10;99.90;;;;;;1972603;72;25281;-90
2023/07/28 08:26:49;;;;;;;1.90;1.17;;;18.40;99.90;;;;;;1968613;72;25724;-90
2023/07/28 08:29:38;;;;;;;2.53;1.00;;;18.50;99.90;;;;;;1974574;72;25368;-88
2023/07/28 08:32:27;;;;;;;6.37;5.57;;;18.40;99.90;;;;;;1974111;70;25371;-89
2023/07/28 08:35:17;;;;;;;12.80;10.43;;;18.30;99.90;;;;;;1964520;72;25262;-90
2023/07/28 08:38:12;;;;;;;13.60;10.43;;;18.60;99.90;;;;;;1993144;72;25715;-90
2023/07/28 08:41:00;;;;;;;3.10;2.70;;;19.20;99.90;;;;;;1994504;70;25347;-90
2023/07/28 08:43:50;;;;;;;1.00;1.00;;;19.50;99.90;;;;;;2014147;70;25218;-90
2023/07/28 08:46:39;;;;;;;0.90;0.90;;;18.60;99.90;;;;;;1995759;70;25221;-90
2023/07/28 08:52:17;;;;;;;1.50;1.37;;;18.80;99.90;;;;;;1927512;74;26994;-90
2023/07/28 08:57:53;;;;;;;3.93;1.70;;;19.50;99.90;;;;;;1964401;72;26904;-90
2023/07/28 09:00:43;;;;;;;1.73;1.63;;;19.90;99.90;;;;;;1928785;73;25245;-90
2023/07/28 09:03:33;;;;;;;3.77;1.07;;;19.90;99.90;;;;;;1879773;75;25155;-90
2023/07/28 09:09:18;;;;;;;1.00;0.90;;;20.20;99.90;;;;;;1956781;72;26936;-89
2023/07/28 09:12:09;;;;;;;1.10;1.10;;;20.50;99.90;;;;;;1937956;72;25662;-89
2023/07/28 09:14:59;;;;;;;1.10;1.10;;;19.90;99.90;;;;;;1925367;73;25239;-89
2023/07/28 09:17:51;;;;;;;10.30;7.73;;;19.80;99.90;;;;;;1882216;74;25267;-89
2023/07/28 09:20:40;;;;;;;8.53;6.70;;;19.70;99.90;;;;;;1861525;75;25234;-89
2023/07/28 09:23:33;;;;;;;1.60;1.40;;;19.80;99.90;;;;;;1891629;75;25899;-89
2023/07/28 09:26:21;;;;;;;4.00;3.60;;;20.20;99.90;;;;;;1871175;76;25237;-89
2023/07/28 09:29:15;;;;;;;5.23;3.20;;;20.60;99.90;;;;;;1895477;75;25247;-89
2023/07/28 09:32:07;;;;;;;4.00;2.30;;;20.20;99.90;;;;;;1866056;75;25302;-89
2023/07/28 09:35:12;;;;;;;4.03;1.93;;;20.20;99.90;;;;;;1892873;75;25274;-90
2023/07/28 09:38:02;;;;;;;3.00;2.70;;;20.20;99.90;;;;;;1894724;75;25291;-90
2023/07/28 09:40:52;;;;;;;2.07;1.90;;;20.10;99.90;;;;;;1893811;75;25303;-89
2023/07/28 09:46:56;;;;;;;3.67;2.87;;;20.60;99.90;;;;;;1936883;74;26677;-89
2023/07/28 09:49:48;;;;;;;7.83;3.97;;;20.70;99.90;;;;;;1911435;74;25347;-89
2023/07/28 09:52:40;;;;;;;3.47;3.17;;;21.00;99.90;;;;;;1907445;73;25341;-89
2023/07/28 09:55:29;;;;;;;4.63;2.87;;;20.70;99.90;;;;;;1894688;75;25208;-89
2023/07/28 10:14:29;;;;;;;3.83;3.13;;;20.80;99.90;;;;;;1875464;75;26313;-90
2023/07/28 10:31:05;;;;;;;5.47;2.40;;;20.80;99.90;;;;;;1986312;69;27506;-89
2023/07/28 11:19:44;;;;;;;4.83;2.30;;;20.30;99.90;;;;;;1906219;73;27171;-90
2023/07/28 11:26:47;;;;;;;1.93;1.40;;;20.10;99.90;;;;;;2061217;68;26683;-89
2023/07/28 11:29:36;;;;;;;1.80;1.70;;;20.50;99.90;;;;;;2002500;71;25245;-90
2023/07/28 11:32:39;;;;;;;3.77;1.40;;;20.50;99.90;;;;;;2018274;70;26280;-89
2023/07/28 11:35:28;;;;;;;3.43;1.60;;;20.80;99.90;;;;;;1998192;70;25709;-90
2023/07/28 11:38:18;;;;;;;1.83;1.57;;;20.60;99.90;;;;;;2017357;71;25233;-90
2023/07/28 11:41:07;;;;;;;1.90;1.80;;;20.80;99.90;;;;;;2004552;69;25238;-89
2023/07/28 11:57:23;;;;;;;3.60;1.60;;;20.70;99.90;;;;;;1874451;74;27045;-89
2023/07/28 12:03:58;;;;;;;2.40;1.67;;;18.80;99.90;;;;;;1941839;72;26915;-90
2023/07/28 12:07:07;;;;;;;2.10;1.43;;;19.50;99.90;;;;;;1925085;72;25264;-89
2023/07/28 12:09:59;;;;;;;1.23;1.20;;;20.00;99.90;;;;;;1923020;72;25269;-90
2023/07/28 12:12:48;;;;;;;1.10;1.10;;;20.60;99.90;;;;;;1921445;72;25193;-90
2023/07/28 12:15:38;;;;;;;2.27;1.20;;;20.90;99.90;;;;;;1941408;72;25158;-90
2023/07/28 12:18:31;;;;;;;1.23;1.13;;;20.90;99.90;;;;;;1965176;72;25811;-90
2023/07/28 12:21:20;;;;;;;3.00;1.17;;;20.80;99.90;;;;;;1973487;72;25167;-90
2023/07/28 12:24:09;;;;;;;2.70;1.93;;;21.20;99.90;;;;;;1974913;72;25227;-89
2023/07/28 12:26:57;;;;;;;3.17;1.50;;;21.50;99.90;;;;;;1958395;72;25205;-89
2023/07/28 12:29:46;;;;;;;2.13;1.93;;;21.40;99.90;;;;;;1959400;72;25238;-89
2023/07/28 12:32:35;;;;;;;9.13;1.90;;;21.10;99.90;;;;;;1982368;72;25706;-90
2023/07/28 12:35:30;;;;;;;6.97;2.00;;;20.50;99.90;;;;;;1976902;72;25206;-89
2023/07/28 12:41:32;;;;;;;3.47;2.10;;;19.10;99.90;;;;;;2007083;71;26715;-89
2023/07/28 12:44:23;;;;;;;3.70;2.50;;;18.80;99.90;;;;;;1971125;72;25343;-90
2023/07/28 12:47:11;;;;;;;5.90;2.50;;;19.00;99.90;;;;;;1983347;71;25723;-90
2023/07/28 12:52:48;;;;;;;1.93;1.73;;;19.80;99.90;;;;;;1953843;72;27039;-90
2023/07/28 12:55:37;;;;;;;1.87;1.73;;;20.00;99.90;;;;;;1935520;72;25660;-91
2023/07/28 12:58:26;;;;;;;1.57;1.47;;;20.10;99.90;;;;;;1939603;73;25204;-90
2023/07/28 13:01:21;;;;;;;3.10;1.50;;;19.90;99.90;;;;;;1907911;72;25187;-90
2023/07/28 13:04:10;;;;;;;2.70;2.00;;;20.10;99.90;;;;;;1888369;73;25777;-91
2023/07/28 13:07:01;;;;;;;3.43;2.20;;;20.10;99.90;;;;;;1911545;72;25237;-90
2023/07/28 13:09:52;;;;;;;2.33;2.03;;;19.90;99.90;;;;;;1939713;72;25236;-90
2023/07/28 13:12:41;;;;;;;3.53;2.30;;;19.80;99.90;;;;;;1934790;73;25734;-90
2023/07/28 13:15:31;;;;;;;4.93;2.40;;;19.80;99.90;;;;;;1912389;73;25172;-90
2023/07/28 13:18:19;;;;;;;6.50;2.87;;;20.10;99.90;;;;;;1932076;73;25309;-90
2023/07/28 13:21:08;;;;;;;5.63;2.77;;;20.00;99.90;;;;;;1929397;72;25690;-90
2023/07/28 13:23:57;;;;;;;5.57;2.77;;;19.80;99.90;;;;;;1931644;73;25723;-90
2023/07/28 13:26:45;;;;;;;5.47;2.50;;;20.00;99.90;;;;;;1929863;73;25273;-91
2023/07/28 13:29:34;;;;;;;5.27;2.90;;;20.10;99.90;;;;;;1916659;73;25205;-91
2023/07/28 13:32:26;;;;;;;7.20;4.00;;;20.10;99.90;;;;;;1919348;72;25722;-90
2023/07/28 13:35:18;;;;;;;4.30;2.80;;;20.20;99.90;;;;;;1922330;73;25350;-90
2023/07/28 13:41:57;;;;;;;2.77;1.90;;;20.10;99.90;;;;;;1976486;71;26530;-90
2023/07/28 13:44:48;;;;;;;4.63;2.53;;;20.30;99.90;;;;;;1980702;72;25166;-91
2023/07/28 13:47:38;;;;;;;1.90;1.70;;;20.20;99.90;;;;;;1969825;72;25233;-90
2023/07/28 13:50:28;;;;;;;1.50;1.40;;;20.30;99.90;;;;;;2000355;71;25257;-90
2023/07/28 13:56:39;;;;;;;2.23;1.60;;;20.50;99.90;;;;;;1983265;71;27120;-89
2023/07/28 13:59:30;;;;;;;1.70;1.30;;;20.50;99.90;;;;;;1961861;71;25231;-89
2023/07/28 14:02:23;;;;;;;2.73;1.37;;;20.80;99.90;;;;;;2061056;68;25262;-89
2023/07/28 14:05:16;;;;;;;1.63;1.20;;;20.60;99.90;;;;;;2061608;68;25201;-90
2023/07/28 14:08:07;;;;;;;1.40;1.30;;;20.90;99.90;;;;;;2066139;69;25216;-90
2023/07/28 14:10:57;;;;;;;2.30;1.10;;;21.00;99.90;;;;;;2055542;69;25170;-90
2023/07/28 14:13:49;;;;;;;2.27;1.17;;;20.90;99.90;;;;;;2050410;69;25200;-89
2023/07/28 14:16:40;;;;;;;2.83;1.20;;;21.10;99.90;;;;;;2041466;69;25188;-90
2023/07/28 14:19:29;;;;;;;3.50;1.60;;;21.30;99.90;;;;;;2032682;69;25238;-90
2023/07/28 14:22:20;;;;;;;1.20;1.00;;;21.40;99.90;;;;;;2027772;69;25618;-90
2023/07/28 14:25:13;;;;;;;3.70;1.40;;;21.20;99.90;;;;;;2048043;68;25235;-90
2023/07/28 14:28:02;;;;;;;3.23;2.23;;;21.40;99.90;;;;;;2041396;69;25254;-89
2023/07/28 14:30:53;;;;;;;2.50;1.97;;;21.60;99.90;;;;;;2054592;68;25195;-90
2023/07/28 14:33:42;;;;;;;5.10;2.20;;;21.80;99.90;;;;;;2052425;68;25197;-90
2023/07/28 14:36:34;;;;;;;2.10;1.90;;;21.90;99.90;;;;;;2039458;69;25233;-90
2023/07/28 14:39:22;;;;;;;6.13;2.30;;;21.80;99.90;;;;;;2042230;68;25668;-91
2023/07/28 14:42:11;;;;;;;2.00;1.80;;;21.70;99.90;;;;;;2017531;69;25251;-90
2023/07/28 14:45:00;;;;;;;1.77;1.50;;;21.60;99.90;;;;;;2011980;69;25282;-90
2023/07/28 14:47:49;;;;;;;1.50;1.40;;;21.40;99.90;;;;;;2025806;69;25194;-90
2023/07/28 14:50:38;;;;;;;1.73;1.30;;;21.40;99.90;;;;;;2009042;69;25207;-91
2023/07/28 14:53:35;;;;;;;2.93;1.40;;;21.50;99.90;;;;;;2027279;69;25288;-90
2023/07/28 14:56:24;;;;;;;2.37;2.00;;;21.50;99.90;;;;;;2017052;69;25286;-91
2023/07/28 15:03:00;;;;;;;1.90;1.40;;;21.90;99.90;;;;;;1994037;71;26913;-91
2023/07/28 15:05:49;;;;;;;2.60;1.60;;;21.90;99.90;;;;;;2001080;70;25219;-90
2023/07/28 15:08:38;;;;;;;3.17;1.60;;;22.00;99.90;;;;;;2029572;69;25154;-90
2023/07/28 15:11:27;;;;;;;2.40;1.70;;;22.00;99.90;;;;;;2029552;69;25248;-90
2023/07/28 15:14:16;;;;;;;2.13;1.70;;;21.90;99.90;;;;;;2029648;70;25678;-90
2023/07/28 15:17:05;;;;;;;2.13;1.67;;;21.90;99.90;;;;;;2015906;69;25221;-90
2023/07/28 15:19:54;;;;;;;3.57;2.50;;;21.80;99.90;;;;;;2030057;69;25154;-90
2023/07/28 15:22:42;;;;;;;2.53;2.33;;;21.80;99.90;;;;;;2029001;70;25204;-90
2023/07/28 15:25:31;;;;;;;2.60;2.07;;;21.80;99.90;;;;;;2013365;70;25192;-91
2023/07/28 15:28:20;;;;;;;1.83;1.60;;;22.10;99.90;;;;;;2027937;69;25789;-90
2023/07/28 15:31:08;;;;;;;3.10;2.70;;;22.10;99.90;;;;;;2017490;70;25783;-90
2023/07/28 15:33:57;;;;;;;1.13;1.13;;;21.90;99.90;;;;;;2020014;70;25244;-90
2023/07/28 15:36:45;;;;;;;0.90;0.90;;;22.00;99.90;;;;;;1999867;70;25712;-90
2023/07/28 15:39:34;;;;;;;1.00;1.00;;;22.00;99.90;;;;;;2026441;69;26357;-90
2023/07/28 15:42:24;;;;;;;2.53;1.10;;;22.00;99.90;;;;;;2016885;70;25277;-90
2023/07/28 15:45:15;;;;;;;1.27;0.90;;;22.00;99.90;;;;;;2022000;70;25322;-90
2023/07/28 15:50:45;;;;;;;1.20;1.20;;;22.30;99.90;;;;;;1850071;75;27147;-90
2023/07/28 15:53:34;;;;;;;2.10;1.90;;;22.30;99.90;;;;;;1802960;79;25311;-90
2023/07/28 15:56:22;;;;;;;3.03;2.43;;;22.50;99.90;;;;;;1792342;79;25258;-90
2023/07/28 15:59:11;;;;;;;1.80;1.70;;;22.50;99.90;;;;;;1797358;79;25253;-89
2023/07/28 16:02:00;;;;;;;1.60;1.50;;;22.50;99.90;;;;;;1792953;79;25252;-90
2023/07/28 16:04:51;;;;;;;1.40;1.30;;;22.30;99.90;;;;;;1781416;79;25675;-90
2023/07/28 16:07:40;;;;;;;1.17;0.87;;;22.20;99.90;;;;;;1788977;79;25280;-90
2023/07/28 16:10:28;;;;;;;2.83;1.00;;;21.30;99.90;;;;;;1794826;79;25437;-90
2023/07/28 16:13:17;;;;;;;0.80;0.80;;;19.90;99.90;;;;;;1803792;79;25215;-90
2023/07/28 16:16:06;;;;;;;1.07;0.87;;;19.60;99.90;;;;;;1789637;78;25261;-90
2023/07/28 16:18:56;;;;;;;1.20;0.93;;;19.50;99.90;;;;;;1796923;79;25242;-90
2023/07/28 16:21:44;;;;;;;2.10;1.27;;;19.40;99.90;;;;;;1791832;78;25256;-90
2023/07/28 16:24:33;;;;;;;3.20;1.10;;;19.50;99.90;;;;;;1797437;79;25339;-90
2023/07/28 16:27:22;;;;;;;0.70;0.70;;;19.10;99.90;;;;;;1794476;79;25244;-90
2023/07/28 17:07:24;;;;;;;1.10;0.83;;;19.00;99.90;;;;;;1810681;78;25292;-90
2023/07/28 17:17:00;;;;;;;1.00;0.90;;;18.60;99.90;;;;;;1945738;72;27126;-90
2023/07/28 17:19:49;;;;;;;1.03;0.93;;;18.40;99.90;;;;;;1916172;72;25601;-90
2023/07/28 17:22:38;;;;;;;1.00;0.90;;;18.50;99.90;;;;;;1929285;72;25159;-90
2023/07/28 17:25:27;;;;;;;1.80;0.90;;;18.40;99.90;;;;;;1917940;73;25246;-90
2023/07/28 17:28:15;;;;;;;2.13;0.83;;;18.60;99.90;;;;;;1925073;72;25246;-90
2023/07/28 17:31:05;;;;;;;1.40;1.00;;;18.60;99.90;;;;;;1927954;72;25152;-90
2023/07/28 17:33:54;;;;;;;2.67;1.20;;;18.80;99.90;;;;;;1909640;72;25237;-90
2023/07/28 17:36:43;;;;;;;4.53;1.67;;;18.90;99.90;;;;;;1920080;72;25662;-90
2023/07/28 17:39:31;;;;;;;8.90;1.00;;;18.90;99.90;;;;;;1891746;75;25341;-90
2023/07/28 17:42:24;;;;;;;0.97;0.90;;;18.80;99.90;;;;;;1871545;73;25314;-89
2023/07/28 17:45:13;;;;;;;3.50;0.83;;;18.90;99.90;;;;;;1839408;77;25845;-90
2023/07/28 17:48:01;;;;;;;3.00;1.10;;;18.90;99.90;;;;;;1871396;76;25721;-90
2023/07/28 19:11:36;;;;;;;0.90;0.90;;;18.20;99.90;;;;;;1937988;73;27036;-91
2023/07/28 19:57:09;;;;;;;3.17;1.60;;;17.00;99.90;;;;;;1956838;72;27039;-90
2023/07/28 20:00:00;;;;;;;1.77;1.67;;;16.90;99.90;;;;;;1939338;73;25154;-90
2023/07/28 20:02:50;;;;;;;1.70;1.60;;;16.90;99.90;;;;;;1934510;73;25269;-90
2023/07/28 20:05:42;;;;;;;1.60;1.50;;;16.80;99.90;;;;;;1924190;72;25287;-90
2023/07/28 20:08:31;;;;;;;4.17;1.80;;;16.80;99.90;;;;;;1925040;72;25243;-90
2023/07/28 20:11:20;;;;;;;1.70;1.60;;;16.70;99.90;;;;;;1929728;72;25316;-90
2023/07/28 20:14:10;;;;;;;3.27;1.73;;;16.70;99.90;;;;;;1935494;72;25218;-91
2023/07/28 20:56:57;;;;;;;5.87;4.40;;;16.90;99.90;;;;;;1884858;75;27064;-90
2023/07/28 22:12:37;;;;;;;2.50;1.43;;;16.30;99.90;;;;;;1890356;74;27194;-90
2023/07/28 22:29:10;;;;;;;7.67;1.80;;;16.20;99.90;;;;;;2001705;71;27531;-91
2023/07/28 22:46:58;;;;;;;8.37;2.07;;;16.00;99.90;;;;;;2035332;69;26233;-92
2023/07/28 23:16:50;;;;;;;13.53;6.50;;;15.60;99.90;;;;;;1992079;71;27837;-90
2023/07/28 23:33:12;;;;;;;13.27;5.83;;;15.30;99.90;;;;;;2000331;71;27798;-89
2023/07/28 23:49:51;;;;;;;11.37;5.93;;;14.60;99.90;;;;;;1975513;71;27066;-89
2023/07/28 23:52:37;;;;;;;13.53;6.80;;;14.40;99.90;;;;;;1947255;72;25188;-89
2023/07/28 23:55:40;;;;;;;11.57;6.70;;;14.30;99.90;;;;;;1944403;72;25326;-89
2023/07/28 23:58:35;;;;;;;11.87;5.57;;;14.30;99.90;;;;;;1964130;72;25189;-89
